createdAt,value
2018-06-12T00:00:17.014Z,51.24
2018-06-12T00:02:46.135Z,51.51
2018-06-12T00:05:14.952Z,50.81
2018-06-12T00:07:43.977Z,52.12
2018-06-12T00:10:13.151Z,51.21
2018-06-12T00:12:41.933Z,51.59
2018-06-12T00:15:11.293Z,52.88
2018-06-12T00:17:40.103Z,52.49
2018-06-12T00:20:08.883Z,52.57
2018-06-12T00:22:38.076Z,52.01
2018-06-12T00:25:06.817Z,51.15
2018-06-12T00:27:35.664Z,51.92
2018-06-12T00:30:04.676Z,52.02
2018-06-12T00:32:33.341Z,52.35
2018-06-12T00:35:02.079Z,51.86
2018-06-12T00:37:31.601Z,52.21
2018-06-12T00:40:00.587Z,52.97
2018-06-12T00:42:29.238Z,53.02
2018-06-12T00:44:57.874Z,53.37
2018-06-12T00:47:26.516Z,53.02
2018-06-12T00:49:55.138Z,53.67
2018-06-12T00:52:23.766Z,52.82
2018-06-12T00:54:52.715Z,53.57
2018-06-12T00:57:21.769Z,54.35
2018-06-12T00:59:51.030Z,54.12
2018-06-12T01:02:19.693Z,54.83
2018-06-12T01:04:49.027Z,54.27
2018-06-12T01:07:18.042Z,54.89
2018-06-12T01:09:46.955Z,55.26
2018-06-12T01:12:16.170Z,55.56
2018-06-12T01:14:45.043Z,55.71
2018-06-12T01:17:13.917Z,55.71
2018-06-12T01:19:42.661Z,55.26
2018-06-12T01:22:11.948Z,55.63
2018-06-12T01:24:40.706Z,55.64
2018-06-12T01:27:09.414Z,55.99
2018-06-12T01:29:38.113Z,55.80
2018-06-12T01:32:06.794Z,56.18
2018-06-12T01:34:35.546Z,55.63
2018-06-12T01:37:04.258Z,56.80
2018-06-12T01:39:32.937Z,56.63
2018-06-12T01:42:01.814Z,56.88
2018-06-12T01:44:30.590Z,56.87
2018-06-12T01:46:59.385Z,56.52
2018-06-12T01:49:28.191Z,56.74
2018-06-12T01:51:57.169Z,57.44
2018-06-12T01:54:26.465Z,56.47
2018-06-12T01:56:55.975Z,56.84
2018-06-12T01:59:24.680Z,56.03
2018-06-12T02:01:53.424Z,56.69
2018-06-12T02:04:22.210Z,56.01
2018-06-12T02:06:50.896Z,55.78
2018-06-12T02:15:00.248Z,55.06
2018-06-12T02:17:28.960Z,55.08
2018-06-12T02:19:57.960Z,54.83
2018-06-12T02:22:26.670Z,54.59
2018-06-12T02:24:55.591Z,54.21
2018-06-12T02:27:24.282Z,54.15
2018-06-12T02:29:52.991Z,54.27
2018-06-12T02:32:21.658Z,54.56
2018-06-12T02:34:50.468Z,54.88
2018-06-12T02:37:19.904Z,55.72
2018-06-12T02:39:48.895Z,55.80
2018-06-12T02:42:17.619Z,55.57
2018-06-12T02:44:46.904Z,55.54
2018-06-12T02:47:16.761Z,55.66
2018-06-12T02:49:46.752Z,55.59
2018-06-12T02:52:15.427Z,55.61
2018-06-12T02:54:44.092Z,55.46
2018-06-12T02:57:12.884Z,55.30
2018-06-12T02:59:42.121Z,54.77
2018-06-12T03:02:11.197Z,54.68
2018-06-12T03:04:40.208Z,55.24
2018-06-12T03:07:08.959Z,55.25
2018-06-12T03:09:37.677Z,54.23
2018-06-12T03:12:06.436Z,54.55
2018-06-12T03:14:35.201Z,55.13
2018-06-12T03:17:04.280Z,53.83
2018-06-12T03:19:32.964Z,54.54
2018-06-12T03:22:01.630Z,54.56
2018-06-12T03:24:30.264Z,54.15
2018-06-12T03:26:58.942Z,52.90
2018-06-12T03:29:27.887Z,53.62
2018-06-12T03:31:56.552Z,53.98
2018-06-12T03:34:25.495Z,53.80
2018-06-12T03:36:54.457Z,53.64
2018-06-12T03:39:23.159Z,53.95
2018-06-12T03:41:52.329Z,53.71
2018-06-12T03:44:21.452Z,54.07
2018-06-12T03:46:50.145Z,54.29
2018-06-12T03:49:18.847Z,54.03
2018-06-12T03:51:47.582Z,53.50
2018-06-12T03:54:16.531Z,53.95
2018-06-12T03:56:45.610Z,54.03
2018-06-12T03:59:14.276Z,55.15
2018-06-12T04:01:42.930Z,55.45
2018-06-12T04:04:11.726Z,55.30
2018-06-12T04:06:40.448Z,56.05
2018-06-12T04:09:09.694Z,57.52
2018-06-12T04:11:39.167Z,56.52
2018-06-12T04:14:07.879Z,56.51
2018-06-12T04:16:37.257Z,57.29
2018-06-12T04:19:07.277Z,56.74
2018-06-12T04:21:36.404Z,56.65
2018-06-12T04:24:05.340Z,57.49
2018-06-12T04:26:34.012Z,57.38
2018-06-12T04:29:03.252Z,56.95
2018-06-12T04:31:32.004Z,56.64
2018-06-12T04:34:00.911Z,56.96
2018-06-12T04:36:29.640Z,56.37
2018-06-12T04:38:58.639Z,55.63
2018-06-12T04:41:27.571Z,55.72
2018-06-12T04:43:56.330Z,55.60
2018-06-12T04:46:24.976Z,55.88
2018-06-12T04:48:53.761Z,55.53
2018-06-12T04:51:22.445Z,56.04
2018-06-12T04:53:51.349Z,56.79
2018-06-12T04:56:19.979Z,57.07
2018-06-12T04:58:48.777Z,57.09
2018-06-12T05:01:18.409Z,56.33
2018-06-12T05:03:47.141Z,56.73
2018-06-12T05:06:15.829Z,58.34
2018-06-12T05:08:44.575Z,57.05
2018-06-12T05:11:13.231Z,58.57
2018-06-12T05:13:41.845Z,58.44
2018-06-12T05:16:10.673Z,57.63
2018-06-12T05:18:39.672Z,57.66
2018-06-12T05:21:08.628Z,57.55
2018-06-12T05:23:37.653Z,57.09
2018-06-12T05:26:06.505Z,57.68
2018-06-12T05:28:35.275Z,58.03
2018-06-12T05:31:03.972Z,56.81
2018-06-12T05:33:32.637Z,57.23
2018-06-12T05:36:01.325Z,56.84
2018-06-12T05:38:30.009Z,57.14
2018-06-12T05:40:58.732Z,55.97
2018-06-12T05:43:27.961Z,56.66
2018-06-12T05:45:57.261Z,55.42
2018-06-12T05:48:26.184Z,55.76
2018-06-12T05:50:55.462Z,56.67
2018-06-12T05:53:24.116Z,56.21
2018-06-12T05:55:53.060Z,56.81
2018-06-12T05:58:21.719Z,55.93
2018-06-12T06:00:50.821Z,54.29
2018-06-12T06:03:19.638Z,54.66
2018-06-12T06:05:48.271Z,54.76
2018-06-12T06:08:17.349Z,55.10
2018-06-12T06:10:46.207Z,53.87
2018-06-12T06:13:14.979Z,54.11
2018-06-12T06:15:43.742Z,53.87
2018-06-12T06:18:12.503Z,52.59
2018-06-12T06:20:41.196Z,53.22
2018-06-12T06:23:09.926Z,52.77
2018-06-12T06:25:39.023Z,52.60
2018-06-12T06:28:08.003Z,53.67
2018-06-12T06:30:36.684Z,53.89
2018-06-12T06:33:05.684Z,54.02
2018-06-12T06:35:34.500Z,52.61
2018-06-12T06:38:03.390Z,52.45
2018-06-12T06:40:32.202Z,52.86
2018-06-12T06:43:01.032Z,53.65
2018-06-12T06:45:29.780Z,53.63
2018-06-12T06:47:58.746Z,52.70
2018-06-12T06:50:27.559Z,50.23
2018-06-12T06:52:56.525Z,50.42
2018-06-12T06:55:25.282Z,49.74
2018-06-12T06:57:53.967Z,49.36
2018-06-12T07:00:23.000Z,49.86
2018-06-12T07:02:51.657Z,48.78
2018-06-12T07:05:20.733Z,49.34
2018-06-12T07:07:49.844Z,50.30
2018-06-12T07:10:18.900Z,49.16
2018-06-12T07:12:49.244Z,51.73
2018-06-12T07:15:19.890Z,49.69
2018-06-12T07:17:48.920Z,49.81
2018-06-12T07:21:28.543Z,49.92
2018-06-12T07:23:57.434Z,47.76
2018-06-12T07:26:26.144Z,47.41
2018-06-12T07:28:54.838Z,48.47
2018-06-12T07:31:23.594Z,47.79
2018-06-12T07:33:52.664Z,47.32
2018-06-12T07:36:21.757Z,46.74
2018-06-12T07:38:50.451Z,44.74
2018-06-12T07:41:19.976Z,45.81
2018-06-12T07:43:48.627Z,44.98
2018-06-12T07:46:17.299Z,44.51
2018-06-12T07:48:46.238Z,44.24
2018-06-12T07:51:14.855Z,43.76
2018-06-12T07:53:43.503Z,44.49
2018-06-12T07:56:12.181Z,45.80
2018-06-12T07:58:46.240Z,46.77
2018-06-12T08:01:16.723Z,44.83
2018-06-12T08:03:45.473Z,43.29
2018-06-12T08:06:14.777Z,45.63
2018-06-12T08:08:47.522Z,46.37
2018-06-12T08:11:22.021Z,44.58
2018-06-12T08:13:52.780Z,44.38
2018-06-12T08:16:21.749Z,44.10
2018-06-12T08:18:51.398Z,43.12
2018-06-12T08:21:21.913Z,43.96
2018-06-12T08:23:50.933Z,41.28
2018-06-12T08:26:22.417Z,40.51
2018-06-12T08:28:52.266Z,41.27
2018-06-12T08:31:20.967Z,38.52
2018-06-12T08:33:50.813Z,37.60
2018-06-12T08:36:20.052Z,42.49
2018-06-12T08:38:51.064Z,40.20
2018-06-12T08:41:19.979Z,41.52
2018-06-12T08:43:49.652Z,43.89
2018-06-12T08:46:20.776Z,42.04
2018-06-12T08:48:49.655Z,43.43
2018-06-12T08:51:18.621Z,42.42
2018-06-12T08:53:47.313Z,42.79
2018-06-12T08:56:16.891Z,45.33
2018-06-12T08:58:45.601Z,48.50
2018-06-12T09:01:16.190Z,48.66
2018-06-12T09:03:44.961Z,46.58
2018-06-12T09:06:17.749Z,47.82
2018-06-12T09:08:47.367Z,46.47
2018-06-12T09:11:17.758Z,46.53
2018-06-12T09:13:46.521Z,46.86
2018-06-12T09:16:15.703Z,46.96
2018-06-12T09:18:44.545Z,46.04
2018-06-12T09:21:13.631Z,46.34
2018-06-12T09:23:42.805Z,45.39
2018-06-12T09:26:11.643Z,47.57
2018-06-12T09:28:40.883Z,47.30
2018-06-12T09:31:09.788Z,45.44
2018-06-12T09:33:38.520Z,45.67
2018-06-12T09:36:12.685Z,46.81
2018-06-12T09:38:41.574Z,48.05
2018-06-12T09:41:12.193Z,46.30
2018-06-12T09:43:41.202Z,46.73
2018-06-12T09:46:10.075Z,47.27
2018-06-12T09:48:39.200Z,44.91
2018-06-12T09:51:08.599Z,42.74
2018-06-12T09:53:37.702Z,46.33
2018-06-12T09:56:08.906Z,43.97
2018-06-12T09:58:38.855Z,46.10
2018-06-12T10:01:13.833Z,47.64
2018-06-12T10:03:43.419Z,47.33
2018-06-12T10:06:12.879Z,44.38
2018-06-12T10:08:42.611Z,44.24
2018-06-12T10:11:11.369Z,44.07
2018-06-12T10:13:40.111Z,43.60
2018-06-12T10:16:11.026Z,43.01
2018-06-12T10:18:41.385Z,44.92
2018-06-12T10:21:10.201Z,44.98
2018-06-12T10:23:39.860Z,43.92
2018-06-12T10:26:08.564Z,44.83
2018-06-12T10:28:37.329Z,44.15
2018-06-12T10:31:07.151Z,44.31
2018-06-12T10:33:38.007Z,44.03
2018-06-12T10:36:07.001Z,42.58
2018-06-12T10:38:35.830Z,45.05
2018-06-12T10:41:05.189Z,44.67
2018-06-12T10:43:34.100Z,43.29
2018-06-12T10:46:02.852Z,41.32
2018-06-12T10:48:32.149Z,44.29
2018-06-12T10:51:01.009Z,44.59
2018-06-12T10:53:30.150Z,44.62
2018-06-12T10:56:00.053Z,42.84
2018-06-12T10:58:29.051Z,41.59
2018-06-12T11:01:03.592Z,40.71
2018-06-12T11:03:32.663Z,41.00
2018-06-12T11:06:01.642Z,41.06
2018-06-12T11:08:30.475Z,42.44
2018-06-12T11:10:59.597Z,44.88
2018-06-12T11:13:28.780Z,42.81
2018-06-12T11:15:58.148Z,43.34
2018-06-12T11:18:28.113Z,43.08
2018-06-12T11:20:58.391Z,42.23
2018-06-12T11:23:27.493Z,42.21
2018-06-12T11:25:56.693Z,43.35
2018-06-12T11:28:25.796Z,42.18
2018-06-12T11:30:55.484Z,41.71
2018-06-12T11:33:24.290Z,38.97
2018-06-12T11:35:53.796Z,38.02
2018-06-12T11:38:23.066Z,37.06
2018-06-12T11:40:52.199Z,37.79
2018-06-12T11:43:21.429Z,34.71
2018-06-12T11:45:50.443Z,34.42
2018-06-12T11:48:20.644Z,37.37
2018-06-12T11:50:49.471Z,39.45
2018-06-12T11:53:19.690Z,38.43
2018-06-12T11:55:49.679Z,39.18
2018-06-12T11:58:21.187Z,39.35
2018-06-12T12:00:50.688Z,37.50
2018-06-12T12:03:20.189Z,32.94
2018-06-12T12:05:51.004Z,29.22
2018-06-12T12:08:22.168Z,30.42
2018-06-12T12:10:51.551Z,28.82
2018-06-12T12:13:20.917Z,30.94
2018-06-12T12:15:50.814Z,31.34
2018-06-12T12:18:22.589Z,34.21
2018-06-12T12:20:51.898Z,31.42
2018-06-12T12:23:29.288Z,28.16
2018-06-12T12:25:58.962Z,24.16
2018-06-12T12:28:28.399Z,22.13
2018-06-12T12:30:58.647Z,21.20
2018-06-12T12:33:30.450Z,22.25
2018-06-12T12:36:03.831Z,17.58
2018-06-12T12:38:35.550Z,20.24
2018-06-12T12:41:05.016Z,19.06
2018-06-12T12:43:36.979Z,18.89
2018-06-12T12:46:10.534Z,20.48
2018-06-12T12:48:40.557Z,20.46
2018-06-12T12:51:11.639Z,18.87
2018-06-12T12:53:41.213Z,17.21
2018-06-12T12:56:11.646Z,18.13
2018-06-12T12:58:42.676Z,17.65
2018-06-12T13:01:13.785Z,16.50
2018-06-12T13:03:43.393Z,16.11
2018-06-12T13:06:14.123Z,16.22
2018-06-12T13:08:43.251Z,14.85
2018-06-12T13:11:12.360Z,15.59
2018-06-12T13:13:43.380Z,16.58
2018-06-12T13:16:14.032Z,16.61
2018-06-12T13:18:44.373Z,16.75
2018-06-12T13:21:14.149Z,16.04
2018-06-12T13:23:43.457Z,18.27
2018-06-12T13:26:12.128Z,19.76
2018-06-12T13:28:41.883Z,19.12
2018-06-12T13:31:11.137Z,17.94
2018-06-12T13:33:40.231Z,16.52
2018-06-12T13:36:10.240Z,15.40
2018-06-12T13:38:39.986Z,16.52
2018-06-12T13:41:10.879Z,17.92
2018-06-12T13:43:39.726Z,19.06
2018-06-12T13:46:09.384Z,20.53
2018-06-12T13:48:38.216Z,23.46
2018-06-12T13:51:07.938Z,23.47
2018-06-12T13:53:37.548Z,22.61
2018-06-12T13:56:10.204Z,22.58
2018-06-12T13:58:41.019Z,22.01
2018-06-12T14:01:10.365Z,22.20
2018-06-12T14:03:39.669Z,23.75
2018-06-12T14:06:09.151Z,21.73
2018-06-12T14:08:39.682Z,20.83
2018-06-12T14:11:09.099Z,23.62
2018-06-12T14:13:38.358Z,27.11
2018-06-12T14:16:07.806Z,26.32
2018-06-12T14:18:37.430Z,25.97
2018-06-12T14:21:07.845Z,27.93
2018-06-12T14:23:38.277Z,28.19
2018-06-12T14:26:07.755Z,27.09
2018-06-12T14:28:36.923Z,27.39
2018-06-12T14:31:07.278Z,29.21
2018-06-12T14:33:37.112Z,29.40
2018-06-12T14:36:06.684Z,29.36
2018-06-12T14:38:36.399Z,31.10
2018-06-12T14:41:05.148Z,32.74
2018-06-12T14:43:35.308Z,32.12
2018-06-12T14:46:04.773Z,32.11
2018-06-12T14:48:36.040Z,32.12
2018-06-12T14:51:05.577Z,34.75
2018-06-12T14:53:34.732Z,36.16
2018-06-12T14:56:04.680Z,35.29
2018-06-12T14:58:34.738Z,36.18
2018-06-12T15:01:07.150Z,36.04
2018-06-12T15:03:36.577Z,35.11
2018-06-12T15:06:06.741Z,33.87
2018-06-12T15:08:37.460Z,35.85
2018-06-12T15:11:10.521Z,35.91
2018-06-12T15:13:40.337Z,36.06
2018-06-12T15:16:09.626Z,34.37
2018-06-12T15:18:39.650Z,36.59
2018-06-12T15:21:09.172Z,35.88
2018-06-12T15:23:38.016Z,35.27
2018-06-12T15:26:07.178Z,36.37
2018-06-12T15:28:36.414Z,35.55
2018-06-12T15:31:05.126Z,35.49
2018-06-12T15:33:34.690Z,36.42
2018-06-12T15:36:03.802Z,36.30
2018-06-12T15:38:34.479Z,37.54
2018-06-12T15:41:03.971Z,37.93
2018-06-12T15:43:32.888Z,36.18
2018-06-12T15:46:01.657Z,36.72
2018-06-12T15:48:30.408Z,37.10
2018-06-12T15:51:00.283Z,37.22
2018-06-12T15:53:29.548Z,38.23
2018-06-12T15:55:59.792Z,37.96
2018-06-12T15:58:28.566Z,37.69
2018-06-12T16:01:02.795Z,38.30
2018-06-12T16:03:38.122Z,38.27
2018-06-12T16:06:08.017Z,37.55
2018-06-12T16:08:36.870Z,36.73
2018-06-12T16:11:06.901Z,36.67
2018-06-12T16:13:37.168Z,37.95
2018-06-12T16:16:07.125Z,38.34
2018-06-12T16:18:36.020Z,38.66
2018-06-12T16:21:05.210Z,38.23
2018-06-12T16:23:34.709Z,39.07
2018-06-12T16:26:05.074Z,39.22
2018-06-12T16:28:34.554Z,40.06
2018-06-12T16:31:03.619Z,39.94
2018-06-12T16:33:33.165Z,40.24
2018-06-12T16:36:03.019Z,40.95
2018-06-12T16:38:32.219Z,40.44
2018-06-12T16:41:02.895Z,40.71
2018-06-12T16:43:34.534Z,40.85
2018-06-12T16:46:04.632Z,40.59
2018-06-12T16:48:34.537Z,40.01
2018-06-12T16:51:05.339Z,38.89
2018-06-12T16:53:34.957Z,39.70
2018-06-12T16:56:05.280Z,39.89
2018-06-12T16:58:34.654Z,41.35
2018-06-12T17:01:03.481Z,40.91
2018-06-12T17:03:34.236Z,41.16
2018-06-12T17:06:11.582Z,40.47
2018-06-12T17:08:40.640Z,40.60
2018-06-12T17:11:09.335Z,39.99
2018-06-12T17:13:39.547Z,40.78
2018-06-12T17:16:09.177Z,40.55
2018-06-12T17:18:39.978Z,40.40
2018-06-12T17:21:10.057Z,41.00
2018-06-12T17:23:38.845Z,40.14
2018-06-12T17:26:10.093Z,40.37
2018-06-12T17:28:46.547Z,40.43
2018-06-12T17:31:19.349Z,40.81
2018-06-12T17:33:52.016Z,40.42
2018-06-12T17:36:22.332Z,40.49
2018-06-12T17:38:51.690Z,40.95
2018-06-12T17:41:24.181Z,40.34
2018-06-12T17:43:54.399Z,40.30
2018-06-12T17:46:24.976Z,40.05
2018-06-12T17:48:55.574Z,40.26
2018-06-12T17:51:29.653Z,40.79
2018-06-12T17:54:02.853Z,40.37
2018-06-12T17:56:39.431Z,40.04
2018-06-12T17:59:08.173Z,40.69
2018-06-12T18:01:39.429Z,40.39
2018-06-12T18:04:08.867Z,40.05
2018-06-12T18:06:38.727Z,40.92
2018-06-12T18:09:08.539Z,40.15
2018-06-12T18:11:38.597Z,40.64
2018-06-12T18:14:07.305Z,40.68
2018-06-12T18:16:36.196Z,41.02
2018-06-12T18:19:06.094Z,40.38
2018-06-12T18:21:34.749Z,40.72
2018-06-12T18:24:03.428Z,40.24
2018-06-12T18:26:34.040Z,40.44
2018-06-12T18:29:03.427Z,40.89
2018-06-12T18:31:33.032Z,41.01
2018-06-12T18:34:02.197Z,41.50
2018-06-12T18:36:32.351Z,41.41
2018-06-12T18:39:01.786Z,42.04
2018-06-12T18:41:31.096Z,46.50
2018-06-12T18:44:00.870Z,46.52
2018-06-12T18:46:30.750Z,45.82
2018-06-12T18:49:02.431Z,48.07
2018-06-12T18:51:32.119Z,47.14
2018-06-12T18:54:06.116Z,47.66
2018-06-12T18:56:35.711Z,47.71
2018-06-12T18:59:04.954Z,45.90
2018-06-12T19:01:37.216Z,46.91
2018-06-12T19:04:06.261Z,45.89
2018-06-12T19:06:35.785Z,48.47
2018-06-12T19:09:07.675Z,46.98
2018-06-12T19:11:37.528Z,46.59
2018-06-12T19:14:06.837Z,44.86
2018-06-12T19:16:43.285Z,48.21
2018-06-12T19:19:13.237Z,49.26
2018-06-12T19:21:43.083Z,48.24
2018-06-12T19:24:11.937Z,47.80
2018-06-12T19:26:42.039Z,47.21
2018-06-12T19:29:12.653Z,46.36
2018-06-12T19:31:44.715Z,46.91
2018-06-12T19:34:13.433Z,45.68
2018-06-12T19:36:42.515Z,47.04
2018-06-12T19:39:12.835Z,47.15
2018-06-12T19:41:41.996Z,47.04
2018-06-12T19:44:11.671Z,46.65
2018-06-12T19:46:41.635Z,46.44
2018-06-12T19:49:11.502Z,45.59
2018-06-12T19:51:41.419Z,46.23
2018-06-12T19:54:10.175Z,46.15
2018-06-12T19:56:38.924Z,46.12
2018-06-12T19:59:07.894Z,47.42
2018-06-12T20:01:37.250Z,47.36
2018-06-12T20:04:06.655Z,47.50
2018-06-12T20:06:35.486Z,46.54
2018-06-12T20:09:07.046Z,46.99
2018-06-12T20:11:35.821Z,46.42
2018-06-12T20:14:05.476Z,46.02
2018-06-12T20:16:35.069Z,46.59
2018-06-12T20:19:04.101Z,46.03
2018-06-12T20:21:32.922Z,46.20
2018-06-12T20:24:02.950Z,45.63
2018-06-12T20:26:32.096Z,46.23
2018-06-12T20:29:01.370Z,46.38
2018-06-12T20:31:30.702Z,45.89
2018-06-12T20:34:00.259Z,45.92
2018-06-12T20:36:30.831Z,46.80
2018-06-12T20:39:00.640Z,46.38
2018-06-12T20:41:29.494Z,46.08
2018-06-12T20:43:58.828Z,46.07
2018-06-12T20:46:27.652Z,46.58
2018-06-12T20:48:57.693Z,46.31
2018-06-12T20:51:27.462Z,45.74
2018-06-12T20:53:56.495Z,47.31
2018-06-12T20:56:25.736Z,46.84
2018-06-12T20:58:54.860Z,47.03
2018-06-12T21:01:24.476Z,47.00
2018-06-12T21:03:55.124Z,46.73
2018-06-12T21:06:27.846Z,46.54
2018-06-12T21:08:57.830Z,45.86
2018-06-12T21:11:27.327Z,44.97
2018-06-12T21:13:57.084Z,46.02
2018-06-12T21:16:26.833Z,46.08
2018-06-12T21:18:56.254Z,46.53
2018-06-12T21:21:26.962Z,45.19
2018-06-12T21:23:56.116Z,46.46
2018-06-12T21:26:26.580Z,45.60
2018-06-12T21:28:56.429Z,45.47
2018-06-12T21:31:26.805Z,44.86
2018-06-12T21:33:56.406Z,46.39
2018-06-12T21:36:26.538Z,45.72
2018-06-12T21:38:56.602Z,45.79
2018-06-12T21:41:27.087Z,45.60
2018-06-12T21:43:56.959Z,45.04
2018-06-12T21:46:27.452Z,45.67
2018-06-12T21:48:56.228Z,44.60
2018-06-12T21:51:26.253Z,44.59
2018-06-12T21:53:54.952Z,45.34
2018-06-12T21:56:24.090Z,45.08
2018-06-12T21:58:53.601Z,45.57
2018-06-12T22:01:22.458Z,45.24
2018-06-12T22:03:52.630Z,44.81
2018-06-12T22:06:22.680Z,44.79
2018-06-12T22:08:52.536Z,45.32
2018-06-12T22:11:22.544Z,45.52
2018-06-12T22:13:51.169Z,46.70
2018-06-12T22:16:24.099Z,46.04
2018-06-12T22:18:53.414Z,45.91
2018-06-12T22:21:24.094Z,45.27
2018-06-12T22:23:54.443Z,45.99
2018-06-12T22:26:23.150Z,45.83
2018-06-12T22:28:52.560Z,46.57
2018-06-12T22:31:23.560Z,46.50
2018-06-12T22:33:52.986Z,46.96
2018-06-12T22:36:23.324Z,46.92
2018-06-12T22:38:52.315Z,46.27
2018-06-12T22:41:21.900Z,46.63
2018-06-12T22:43:50.755Z,47.54
2018-06-12T22:46:20.414Z,46.83
2018-06-12T22:48:49.995Z,47.52
2018-06-12T22:51:20.811Z,47.00
2018-06-12T22:53:50.576Z,47.30
2018-06-12T22:56:20.065Z,47.29
2018-06-12T22:58:48.726Z,47.34
2018-06-12T23:01:17.666Z,47.38
2018-06-12T23:03:47.854Z,46.95
2018-06-12T23:06:17.274Z,47.17
2018-06-12T23:08:46.850Z,47.29
2018-06-12T23:11:15.537Z,46.60
2018-06-12T23:13:44.757Z,46.35
2018-06-12T23:16:13.778Z,47.72
2018-06-12T23:18:44.191Z,47.73
2018-06-12T23:21:24.070Z,47.75
2018-06-12T23:23:53.576Z,47.52
2018-06-12T23:26:22.294Z,47.61
2018-06-12T23:28:51.974Z,47.32
2018-06-12T23:31:21.581Z,47.51
2018-06-12T23:33:50.931Z,47.07
2018-06-12T23:36:20.079Z,47.55
2018-06-12T23:38:50.526Z,48.14
2018-06-12T23:41:20.046Z,47.94
2018-06-12T23:43:50.182Z,47.70
2018-06-12T23:46:20.554Z,47.79
2018-06-12T23:48:49.571Z,47.80
2018-06-12T23:51:19.890Z,48.03
2018-06-12T23:53:49.306Z,48.35
2018-06-12T23:56:18.898Z,48.36
2018-06-12T23:58:50.292Z,49.02
